Terminal Aerodrome Forecast
Issued by NWS

Home | Current Version | Previous Version | Text Only | Print | Product List | Glossary On
Versions: 1 2 3 4 5 6 7 8 9 10 11 12 13
000
FTUS42 KTAE 282324
TAFABY
TAF
KABY 282324Z 2900/2924 12008KT P6SM SCT050 BKN150
     FM290900 08004KT P6SM BKN012 BKN100
     FM291500 11006KT P6SM SCT020 BKN040
     FM291900 14006KT 5SM TSRA BKN050CB=

USA.gov is the U.S. government's official web portal to all federal, state and local government web resources and services.